Time;durP1;ratioP1;P1;durP2;ratioP2;P2;SDS_P1;SDS_P2;PMS_P1;PMS_P2;Temp;Humidity;BMP_temperature;BMP_pressure;BME280_temperature;BME280_humidity;BME280_pressure;Samples;Min_cycle;Max_cycle;Signal;HPM_P1;HPM_P2
2023/03/08 00:00:01;;;;;;;32.07;13.70;;;3.90;99.90;;;;;;4405136;28;659560;-72
2023/03/08 00:02:48;;;;;;;33.13;14.03;;;3.90;99.90;;;;;;4422664;28;658881;-72
2023/03/08 00:05:35;;;;;;;30.73;13.70;;;3.90;99.90;;;;;;4402511;28;658663;-72
2023/03/08 00:08:24;;;;;;;32.60;14.53;;;4.00;99.90;;;;;;4425106;28;659523;-72
2023/03/08 00:11:12;;;;;;;34.60;14.30;;;3.90;99.90;;;;;;4411881;28;658914;-72
2023/03/08 00:14:00;;;;;;;35.17;15.50;;;3.90;99.90;;;;;;4431746;28;658909;-72
2023/03/08 00:16:47;;;;;;;33.72;14.25;;;3.90;99.90;;;;;;4403522;28;659217;-72
2023/03/08 00:19:35;;;;;;;27.40;11.77;;;3.90;99.90;;;;;;4427859;28;659215;-72
2023/03/08 00:22:22;;;;;;;32.07;14.47;;;4.00;99.90;;;;;;4399222;28;660656;-72
2023/03/08 00:25:11;;;;;;;33.37;14.93;;;3.90;99.90;;;;;;4433561;28;658421;-72
2023/03/08 00:27:58;;;;;;;34.17;15.37;;;3.90;99.90;;;;;;4401516;28;659789;-72
2023/03/08 00:30:45;;;;;;;30.60;12.67;;;3.90;99.90;;;;;;4402659;28;659271;-72
2023/03/08 00:33:32;;;;;;;35.60;14.37;;;3.90;99.90;;;;;;4431565;28;659027;-72
2023/03/08 00:36:20;;;;;;;27.53;12.43;;;3.90;99.90;;;;;;4416455;28;658622;-72
2023/03/08 00:39:07;;;;;;;35.87;15.53;;;3.90;99.90;;;;;;4422180;28;659502;-72
2023/03/08 00:41:57;;;;;;;33.63;15.53;;;4.00;99.90;;;;;;4422530;28;658436;-72
2023/03/08 00:44:44;;;;;;;34.67;14.93;;;3.90;99.90;;;;;;4429784;28;658709;-72
2023/03/08 00:47:31;;;;;;;27.23;11.33;;;4.00;99.90;;;;;;4402213;28;658780;-72
2023/03/08 00:50:18;;;;;;;32.35;13.45;;;4.00;99.90;;;;;;4422213;28;659391;-72
2023/03/08 00:53:06;;;;;;;30.73;14.07;;;4.00;99.90;;;;;;4401752;28;658831;-72
2023/03/08 00:55:53;;;;;;;28.00;12.40;;;4.00;99.90;;;;;;4426077;28;659147;-72
2023/03/08 00:58:42;;;;;;;33.40;15.07;;;4.00;99.90;;;;;;4404284;28;658302;-72
2023/03/08 01:01:29;;;;;;;30.93;15.27;;;4.00;99.90;;;;;;4430135;28;657960;-72
2023/03/08 01:04:17;;;;;;;32.60;14.57;;;4.00;99.90;;;;;;4404752;28;658546;-72
2023/03/08 01:07:04;;;;;;;31.67;15.07;;;4.00;99.90;;;;;;4396740;28;658792;-72
2023/03/08 01:09:55;;;;;;;29.93;14.03;;;4.00;99.90;;;;;;4373371;28;658613;-72
2023/03/08 01:12:42;;;;;;;33.03;14.20;;;4.00;99.90;;;;;;4363717;28;660306;-72
2023/03/08 01:15:31;;;;;;;31.27;11.87;;;4.00;99.90;;;;;;4399683;28;658636;-74
2023/03/08 01:18:18;;;;;;;29.80;12.93;;;4.00;99.90;;;;;;4369640;28;659322;-71
2023/03/08 01:21:05;;;;;;;32.03;14.07;;;4.00;99.90;;;;;;4369770;28;658985;-72
2023/03/08 01:23:53;;;;;;;26.70;11.13;;;3.90;99.90;;;;;;4388637;28;659020;-73
2023/03/08 01:26:40;;;;;;;30.92;14.18;;;3.90;99.90;;;;;;4371927;28;658463;-71
2023/03/08 01:29:28;;;;;;;34.27;13.77;;;3.90;99.90;;;;;;4388447;28;660148;-75
2023/03/08 01:32:17;;;;;;;29.87;14.73;;;3.90;99.90;;;;;;4391630;28;659341;-73
2023/03/08 01:35:04;;;;;;;31.37;15.10;;;3.90;99.90;;;;;;4392367;28;658167;-76
2023/03/08 01:37:53;;;;;;;33.53;15.87;;;3.80;99.90;;;;;;4371919;28;659117;-76
2023/03/08 01:40:40;;;;;;;35.13;16.33;;;3.80;99.90;;;;;;4379019;28;659575;-73
2023/03/08 01:43:28;;;;;;;35.47;15.27;;;3.80;99.90;;;;;;4386757;28;659851;-75
2023/03/08 01:46:27;;;;;;;36.50;15.27;;;3.80;99.90;;;;;;4376988;28;658733;-75
2023/03/08 01:49:17;;;;;;;29.43;12.47;;;3.80;99.90;;;;;;4376338;28;658946;-71
2023/03/08 01:52:06;;;;;;;29.03;12.73;;;3.80;99.90;;;;;;4374133;28;658722;-72
2023/03/08 01:54:54;;;;;;;32.03;15.53;;;3.80;99.90;;;;;;4371558;28;658855;-73
2023/03/08 01:57:42;;;;;;;26.57;12.23;;;3.70;99.90;;;;;;4375161;28;659814;-72
2023/03/08 02:00:29;;;;;;;29.60;14.13;;;3.70;99.90;;;;;;4401656;28;658298;-73
2023/03/08 02:03:17;;;;;;;30.57;14.00;;;3.70;99.90;;;;;;4373641;28;659660;-72
2023/03/08 02:06:06;;;;;;;38.27;16.00;;;3.60;99.90;;;;;;4424381;28;658741;-72
2023/03/08 02:08:53;;;;;;;30.03;13.30;;;3.60;99.90;;;;;;4403467;28;660354;-72
2023/03/08 02:11:40;;;;;;;33.63;15.97;;;3.60;99.90;;;;;;4406997;28;658917;-72
2023/03/08 02:14:28;;;;;;;29.33;13.77;;;3.60;99.90;;;;;;4430872;28;659008;-72
2023/03/08 02:17:15;;;;;;;33.47;15.37;;;3.50;99.90;;;;;;4422723;28;658940;-71
2023/03/08 02:20:08;;;;;;;29.70;12.33;;;3.50;99.90;;;;;;4430344;28;660297;-72
2023/03/08 02:23:06;;;;;;;33.37;12.63;;;3.50;99.90;;;;;;4394620;28;658466;-71
2023/03/08 02:25:55;;;;;;;35.47;14.00;;;3.50;99.90;;;;;;4411176;28;659024;-72
2023/03/08 02:28:42;;;;;;;25.00;10.10;;;3.50;99.90;;;;;;4401747;28;659105;-71
2023/03/08 02:31:29;;;;;;;33.73;16.20;;;3.50;99.90;;;;;;4427086;28;658633;-72
2023/03/08 02:34:16;;;;;;;32.17;14.73;;;3.50;99.90;;;;;;4409852;28;658921;-72
2023/03/08 02:37:04;;;;;;;26.83;12.40;;;3.40;99.90;;;;;;4427359;28;659434;-71
2023/03/08 02:39:52;;;;;;;34.33;15.40;;;3.40;99.90;;;;;;4404682;28;658780;-72
2023/03/08 02:42:39;;;;;;;33.23;15.37;;;3.50;99.90;;;;;;4436008;28;658806;-72
2023/03/08 02:45:27;;;;;;;30.23;15.30;;;3.40;99.90;;;;;;4413227;28;659074;-72
2023/03/08 02:48:14;;;;;;;35.37;16.13;;;3.40;99.90;;;;;;4427964;28;659376;-72
2023/03/08 02:51:01;;;;;;;36.63;17.47;;;3.40;99.90;;;;;;4407318;28;658345;-71
2023/03/08 02:53:48;;;;;;;33.97;15.57;;;3.30;99.90;;;;;;4433133;28;659066;-72
2023/03/08 02:56:37;;;;;;;33.70;16.37;;;3.30;99.90;;;;;;4403634;28;658941;-72
2023/03/08 02:59:25;;;;;;;37.60;17.20;;;3.30;99.90;;;;;;4424562;28;658872;-72
2023/03/08 03:02:13;;;;;;;34.50;15.43;;;3.30;99.90;;;;;;4403572;28;659337;-72
2023/03/08 03:05:00;;;;;;;32.43;13.60;;;3.20;99.90;;;;;;4421761;28;659819;-72
2023/03/08 03:07:47;;;;;;;31.53;16.03;;;3.20;99.90;;;;;;4424655;28;659364;-71
2023/03/08 03:10:36;;;;;;;30.57;13.53;;;3.20;99.90;;;;;;4404193;28;658656;-72
2023/03/08 03:13:25;;;;;;;30.60;15.07;;;3.20;99.90;;;;;;4426432;28;659655;-72
2023/03/08 03:16:13;;;;;;;29.10;13.73;;;3.30;99.90;;;;;;4404201;28;659848;-72
2023/03/08 03:19:00;;;;;;;29.37;13.27;;;3.20;99.90;;;;;;4405982;28;659510;-72
2023/03/08 03:21:48;;;;;;;31.47;15.63;;;3.30;99.90;;;;;;4425034;28;659887;-72
2023/03/08 03:24:35;;;;;;;29.17;13.47;;;3.30;99.90;;;;;;4405687;28;658261;-72
2023/03/08 03:27:22;;;;;;;26.27;12.27;;;3.30;99.90;;;;;;4425924;28;660007;-71
2023/03/08 03:30:13;;;;;;;34.43;16.77;;;3.30;99.90;;;;;;4425333;28;658718;-72
2023/03/08 03:33:00;;;;;;;32.73;14.83;;;3.30;99.90;;;;;;4423178;28;658724;-72
2023/03/08 03:35:47;;;;;;;33.07;13.77;;;3.30;99.90;;;;;;4428440;28;658949;-72
2023/03/08 03:38:35;;;;;;;34.13;15.40;;;3.20;99.90;;;;;;4420886;28;659048;-72
2023/03/08 03:41:23;;;;;;;28.03;13.57;;;3.30;99.90;;;;;;4425321;28;660509;-72
2023/03/08 03:44:10;;;;;;;28.27;12.83;;;3.30;99.90;;;;;;4414810;28;658973;-72
2023/03/08 03:46:59;;;;;;;28.77;13.17;;;3.30;99.90;;;;;;4434211;28;660146;-72
2023/03/08 03:49:46;;;;;;;26.33;12.03;;;3.30;99.90;;;;;;4404059;28;658476;-72
2023/03/08 03:52:33;;;;;;;25.77;12.02;;;3.30;99.90;;;;;;4300862;28;659670;-71
2023/03/08 03:55:21;;;;;;;22.60;11.23;;;3.30;99.90;;;;;;4221961;28;658978;-72
2023/03/08 03:58:08;;;;;;;22.73;10.40;;;3.30;99.90;;;;;;4302948;28;658463;-73
2023/03/08 04:00:56;;;;;;;17.40;7.57;;;3.30;99.90;;;;;;4402209;28;658909;-72
2023/03/08 04:03:44;;;;;;;20.20;9.10;;;3.40;99.90;;;;;;4425390;28;658125;-71
2023/03/08 04:06:32;;;;;;;23.90;10.03;;;3.40;99.90;;;;;;4401438;28;658148;-72
2023/03/08 04:09:20;;;;;;;20.30;9.33;;;3.40;99.90;;;;;;4429012;28;658899;-71
2023/03/08 04:12:08;;;;;;;24.80;10.03;;;3.50;99.90;;;;;;4433472;28;657596;-72
2023/03/08 04:14:55;;;;;;;19.10;9.13;;;3.50;99.90;;;;;;4413594;28;658980;-71
2023/03/08 04:17:42;;;;;;;16.63;8.47;;;3.50;99.90;;;;;;4437096;28;658365;-71
2023/03/08 04:20:32;;;;;;;19.77;8.33;;;3.50;99.90;;;;;;4421371;28;658831;-74
2023/03/08 04:23:19;;;;;;;18.47;8.27;;;3.50;99.90;;;;;;4435106;28;657767;-71
2023/03/08 04:26:06;;;;;;;21.17;8.90;;;3.40;99.90;;;;;;4405022;28;657681;-74
2023/03/08 04:28:53;;;;;;;15.60;7.45;;;3.40;99.90;;;;;;4432334;28;658755;-72
2023/03/08 04:31:40;;;;;;;15.37;6.27;;;3.40;99.90;;;;;;4402428;28;657546;-72
2023/03/08 04:34:28;;;;;;;15.20;7.50;;;3.40;99.90;;;;;;4423669;28;659301;-72
2023/03/08 04:37:17;;;;;;;15.57;7.35;;;3.40;99.90;;;;;;4416694;28;657780;-72
2023/03/08 04:40:08;;;;;;;19.03;8.07;;;3.30;99.90;;;;;;4431192;28;658057;-71
2023/03/08 04:42:55;;;;;;;20.13;9.17;;;3.40;99.90;;;;;;4394562;28;658226;-71
2023/03/08 04:45:42;;;;;;;14.60;6.50;;;3.40;99.90;;;;;;4421657;28;658584;-71
2023/03/08 04:48:30;;;;;;;20.67;8.50;;;3.30;99.90;;;;;;4417348;28;657735;-72
2023/03/08 04:51:17;;;;;;;18.87;9.37;;;3.30;99.90;;;;;;4432306;28;658275;-71
2023/03/08 04:54:07;;;;;;;14.67;7.70;;;3.30;99.90;;;;;;4420126;28;657792;-71
2023/03/08 04:56:54;;;;;;;15.67;7.17;;;3.30;99.90;;;;;;4427851;28;657986;-72
2023/03/08 04:59:43;;;;;;;19.20;9.10;;;3.20;99.90;;;;;;4406762;28;657548;-72
2023/03/08 05:02:30;;;;;;;13.57;5.30;;;3.20;99.90;;;;;;4406421;28;657466;-74
2023/03/08 05:05:18;;;;;;;15.37;6.90;;;3.20;99.90;;;;;;4428247;28;658723;-76
2023/03/08 05:08:05;;;;;;;21.70;8.23;;;3.20;99.90;;;;;;4422126;28;658496;-73
2023/03/08 05:10:56;;;;;;;15.63;8.03;;;3.20;99.90;;;;;;4422960;28;658829;-76
2023/03/08 05:13:44;;;;;;;19.27;8.20;;;3.20;99.90;;;;;;4404939;28;657984;-72
2023/03/08 05:16:31;;;;;;;13.63;6.40;;;3.10;99.90;;;;;;4411940;28;658859;-71
2023/03/08 05:19:18;;;;;;;20.93;8.23;;;3.20;99.90;;;;;;4429252;28;658413;-74
2023/03/08 05:22:05;;;;;;;16.67;7.10;;;3.10;99.90;;;;;;4412786;28;657365;-71
2023/03/08 05:24:52;;;;;;;17.40;6.50;;;3.10;99.90;;;;;;4417173;28;658896;-72
2023/03/08 05:27:42;;;;;;;18.30;8.67;;;3.20;99.90;;;;;;4423010;28;657946;-72
2023/03/08 05:30:29;;;;;;;17.90;8.20;;;3.10;99.90;;;;;;4428110;28;657790;-74
2023/03/08 05:33:16;;;;;;;20.70;8.47;;;3.10;99.90;;;;;;4401570;28;658408;-72
2023/03/08 05:36:04;;;;;;;23.17;9.80;;;3.00;99.90;;;;;;4428571;28;657912;-73
2023/03/08 05:38:53;;;;;;;22.53;9.47;;;3.10;99.90;;;;;;4403880;28;658185;-75
2023/03/08 05:41:40;;;;;;;23.93;9.90;;;3.10;99.90;;;;;;4406486;28;657554;-72
2023/03/08 05:44:29;;;;;;;26.17;10.83;;;3.10;99.90;;;;;;4421551;28;658858;-72
2023/03/08 05:47:16;;;;;;;24.57;11.70;;;3.10;99.90;;;;;;4406864;28;659526;-72
2023/03/08 05:50:04;;;;;;;20.43;10.17;;;3.10;99.90;;;;;;4420864;28;660214;-72
2023/03/08 05:52:51;;;;;;;24.87;10.03;;;3.10;99.90;;;;;;4401198;28;658613;-72
2023/03/08 05:55:38;;;;;;;20.20;9.90;;;3.20;99.90;;;;;;4425860;28;658303;-72
2023/03/08 05:58:26;;;;;;;21.23;10.33;;;3.20;99.90;;;;;;4411673;28;657936;-72
2023/03/08 06:01:16;;;;;;;19.30;9.30;;;3.20;99.90;;;;;;4427534;28;659251;-72
2023/03/08 06:04:03;;;;;;;22.90;9.60;;;3.10;99.90;;;;;;4408407;28;658728;-71
2023/03/08 06:06:50;;;;;;;24.03;10.17;;;3.20;99.90;;;;;;4403549;28;657770;-72
2023/03/08 06:09:37;;;;;;;19.97;8.90;;;3.20;99.90;;;;;;4416769;28;660078;-71
2023/03/08 06:12:25;;;;;;;16.30;7.60;;;3.20;99.90;;;;;;4418738;28;657494;-72
2023/03/08 06:15:12;;;;;;;21.63;9.27;;;3.20;99.90;;;;;;4424804;28;657800;-72
2023/03/08 06:18:02;;;;;;;23.80;10.47;;;3.20;99.90;;;;;;4415665;28;657599;-71
2023/03/08 06:20:56;;;;;;;20.27;9.37;;;3.20;99.90;;;;;;4423935;28;658595;-71
2023/03/08 06:23:44;;;;;;;17.90;8.33;;;3.20;99.90;;;;;;4405312;28;657494;-71
2023/03/08 06:26:31;;;;;;;26.77;10.83;;;3.30;99.90;;;;;;4400282;28;658180;-71
2023/03/08 06:29:18;;;;;;;19.77;10.13;;;3.30;99.90;;;;;;4425502;28;659350;-71
2023/03/08 06:32:07;;;;;;;18.47;7.80;;;3.50;99.90;;;;;;4395050;28;659946;-72
2023/03/08 06:34:55;;;;;;;21.17;7.43;;;3.60;99.90;;;;;;4428173;28;657218;-71
2023/03/08 06:37:42;;;;;;;16.90;7.57;;;3.50;99.90;;;;;;4412804;28;658082;-71
2023/03/08 06:40:30;;;;;;;23.50;8.97;;;3.50;99.90;;;;;;4430355;28;657459;-71
2023/03/08 06:43:17;;;;;;;15.43;7.97;;;3.50;99.90;;;;;;4439358;28;658410;-71
2023/03/08 06:46:05;;;;;;;22.97;7.37;;;3.40;99.90;;;;;;4425542;28;658235;-71
2023/03/08 06:48:53;;;;;;;19.47;9.50;;;3.40;99.90;;;;;;4427586;28;659283;-71
2023/03/08 06:51:42;;;;;;;18.95;9.45;;;3.40;99.90;;;;;;4409345;28;657926;-71
2023/03/08 06:54:29;;;;;;;17.97;7.50;;;3.40;99.90;;;;;;4422063;28;657641;-72
2023/03/08 06:57:16;;;;;;;21.27;9.30;;;3.40;99.90;;;;;;4397608;28;657768;-71
2023/03/08 07:00:04;;;;;;;17.03;6.63;;;3.40;99.90;;;;;;4423616;28;660001;-70
2023/03/08 07:02:52;;;;;;;19.37;9.03;;;3.40;99.90;;;;;;4408555;28;657534;-71
2023/03/08 07:05:39;;;;;;;21.77;10.30;;;3.40;99.90;;;;;;4424509;28;657840;-71
2023/03/08 07:08:28;;;;;;;20.03;9.33;;;3.40;99.90;;;;;;4401065;28;658660;-71
2023/03/08 07:11:15;;;;;;;17.80;8.07;;;3.30;99.90;;;;;;4409713;28;658011;-71
2023/03/08 07:14:02;;;;;;;18.90;7.83;;;3.50;99.90;;;;;;4421544;28;658865;-72
2023/03/08 07:16:50;;;;;;;17.27;6.67;;;3.50;99.90;;;;;;4424468;28;657727;-72
2023/03/08 07:19:38;;;;;;;15.90;8.17;;;3.60;99.90;;;;;;4430406;28;657969;-70
2023/03/08 07:22:25;;;;;;;17.93;8.17;;;3.60;99.90;;;;;;4411857;28;657940;-71
2023/03/08 07:25:14;;;;;;;18.70;8.93;;;3.60;99.90;;;;;;4434993;28;658139;-71
2023/03/08 07:28:01;;;;;;;20.77;9.90;;;3.60;99.90;;;;;;4409617;28;658138;-71
2023/03/08 07:30:49;;;;;;;16.40;8.90;;;3.80;99.90;;;;;;4423403;28;658213;-71
2023/03/08 07:33:36;;;;;;;20.77;9.33;;;4.10;99.90;;;;;;4407966;28;658088;-71
2023/03/08 07:36:23;;;;;;;18.07;8.20;;;4.30;99.90;;;;;;4431726;28;658509;-70
2023/03/08 07:39:10;;;;;;;15.40;7.90;;;4.60;99.90;;;;;;4406152;28;659680;-71
2023/03/08 07:41:59;;;;;;;16.00;6.43;;;4.70;99.90;;;;;;4414906;28;659261;-71
2023/03/08 07:44:46;;;;;;;17.55;8.95;;;4.60;99.90;;;;;;4406496;28;657836;-71
2023/03/08 07:47:33;;;;;;;16.30;7.73;;;4.70;99.90;;;;;;4422739;28;657906;-71
2023/03/08 07:50:21;;;;;;;22.63;9.40;;;4.50;99.90;;;;;;4411124;28;657433;-71
2023/03/08 07:53:08;;;;;;;19.23;7.73;;;4.50;99.90;;;;;;4430046;28;658693;-74
2023/03/08 07:55:57;;;;;;;17.83;8.85;;;4.70;99.90;;;;;;4400038;28;657525;-73
2023/03/08 07:58:46;;;;;;;17.67;8.10;;;5.00;99.90;;;;;;4417179;28;657517;-71
2023/03/08 08:01:33;;;;;;;13.43;6.27;;;5.00;99.90;;;;;;4400901;28;658082;-71
2023/03/08 08:04:21;;;;;;;17.77;8.53;;;5.00;99.90;;;;;;4404986;28;658087;-71
2023/03/08 08:07:12;;;;;;;16.10;7.53;;;4.70;99.90;;;;;;4390695;28;658508;-71
2023/03/08 08:09:59;;;;;;;18.10;7.73;;;4.70;99.90;;;;;;4368371;28;657962;-71
2023/03/08 08:12:46;;;;;;;16.90;7.20;;;4.60;99.90;;;;;;4370121;28;658258;-71
2023/03/08 08:15:35;;;;;;;20.02;7.95;;;4.60;99.90;;;;;;4389047;28;658732;-71
2023/03/08 08:18:22;;;;;;;12.63;6.47;;;4.50;99.90;;;;;;4369356;28;658640;-74
2023/03/08 08:21:10;;;;;;;14.67;6.80;;;4.40;99.90;;;;;;4388531;28;658170;-74
2023/03/08 08:23:57;;;;;;;17.80;7.23;;;4.50;99.90;;;;;;4382420;28;657880;-71
2023/03/08 08:26:44;;;;;;;20.33;9.33;;;4.50;99.90;;;;;;4391003;28;657621;-71
2023/03/08 08:29:32;;;;;;;20.17;9.27;;;4.60;99.90;;;;;;4376909;28;657589;-71
2023/03/08 08:32:20;;;;;;;15.70;7.80;;;4.60;99.90;;;;;;4400407;28;657589;-71
2023/03/08 08:35:08;;;;;;;17.17;7.23;;;4.60;99.90;;;;;;4378400;28;658404;-71
2023/03/08 08:37:55;;;;;;;16.27;7.07;;;4.80;99.90;;;;;;4376875;28;657452;-71
2023/03/08 08:40:43;;;;;;;19.13;9.20;;;4.80;99.90;;;;;;4387141;28;658798;-71
2023/03/08 08:43:30;;;;;;;23.90;9.97;;;4.90;99.90;;;;;;4388706;28;657827;-72
2023/03/08 08:46:18;;;;;;;16.80;7.80;;;5.00;99.90;;;;;;4403859;28;658114;-73
2023/03/08 08:49:07;;;;;;;20.77;8.53;;;5.10;99.90;;;;;;4385649;28;658715;-71
2023/03/08 08:51:54;;;;;;;19.97;8.57;;;5.10;99.90;;;;;;4394645;28;658097;-71
2023/03/08 08:54:41;;;;;;;21.00;9.30;;;5.20;99.90;;;;;;4378140;28;658076;-71
2023/03/08 08:57:28;;;;;;;14.55;7.05;;;5.60;99.90;;;;;;4384079;28;659051;-74
2023/03/08 09:00:18;;;;;;;17.90;8.00;;;5.90;99.90;;;;;;4381591;28;657733;-72
2023/03/08 09:03:05;;;;;;;13.85;6.32;;;5.70;99.90;;;;;;4372068;28;658556;-74
2023/03/08 09:05:54;;;;;;;18.70;7.80;;;6.10;99.90;;;;;;4410817;28;658368;-71
2023/03/08 09:08:41;;;;;;;11.97;5.40;;;5.80;99.90;;;;;;4405647;28;657519;-73
2023/03/08 09:11:28;;;;;;;16.30;7.83;;;5.90;99.90;;;;;;4428057;28;658697;-71
2023/03/08 09:14:15;;;;;;;14.20;7.53;;;5.90;99.90;;;;;;4405241;28;658005;-70
2023/03/08 09:17:05;;;;;;;16.43;7.83;;;6.30;99.90;;;;;;4426555;28;659116;-71
2023/03/08 09:19:52;;;;;;;15.83;7.73;;;6.70;99.90;;;;;;4410072;28;659508;-71
2023/03/08 09:22:41;;;;;;;11.07;5.90;;;6.40;99.90;;;;;;4425702;28;657509;-71
2023/03/08 09:25:28;;;;;;;12.90;7.20;;;6.20;99.10;;;;;;4400801;28;657779;-72
2023/03/08 09:28:15;;;;;;;16.50;6.72;;;6.20;99.90;;;;;;4417353;28;658188;-71
2023/03/08 09:31:08;;;;;;;13.83;6.97;;;5.90;99.90;;;;;;4426219;28;658801;-71
2023/03/08 09:33:56;;;;;;;10.87;5.77;;;5.80;99.90;;;;;;4403807;28;657708;-73
2023/03/08 09:36:43;;;;;;;15.27;6.73;;;6.00;99.90;;;;;;4423360;28;658035;-71
2023/03/08 09:39:32;;;;;;;11.40;6.10;;;6.30;99.90;;;;;;4409040;28;657858;-70
2023/03/08 09:42:22;;;;;;;15.95;8.02;;;6.50;99.10;;;;;;4432920;28;657542;-71
2023/03/08 09:45:23;;;;;;;15.57;7.50;;;6.50;98.50;;;;;;4426083;28;657128;-69
2023/03/08 09:48:13;;;;;;;17.57;7.57;;;6.30;97.50;;;;;;4405602;28;657836;-70
2023/03/08 09:51:02;;;;;;;19.40;7.13;;;6.00;99.10;;;;;;4411825;28;658111;-70
2023/03/08 09:53:53;;;;;;;13.97;7.63;;;6.20;99.30;;;;;;4419921;28;657395;-70
2023/03/08 09:56:44;;;;;;;13.77;7.43;;;6.30;99.10;;;;;;4253901;28;657775;-69
2023/03/08 09:59:32;;;;;;;14.90;6.93;;;6.50;97.60;;;;;;4219709;28;658064;-70
2023/03/08 10:02:25;;;;;;;18.70;8.23;;;6.50;99.10;;;;;;4310857;28;657422;-70
2023/03/08 10:05:16;;;;;;;13.73;6.33;;;6.70;96.70;;;;;;4405253;28;658844;-72
2023/03/08 10:08:05;;;;;;;17.00;7.90;;;6.60;95.50;;;;;;4398416;28;658291;-70
2023/03/08 10:10:54;;;;;;;16.23;7.60;;;6.80;96.00;;;;;;4407874;28;658439;-70
2023/03/08 10:13:45;;;;;;;14.50;7.70;;;7.10;95.70;;;;;;4407317;28;658282;-70
2023/03/08 10:16:34;;;;;;;13.33;6.07;;;7.00;94.40;;;;;;4404768;28;658572;-71
2023/03/08 10:19:23;;;;;;;14.47;7.93;;;6.80;95.10;;;;;;4415685;28;657557;-70
2023/03/08 10:22:16;;;;;;;14.80;8.10;;;6.90;94.30;;;;;;4406388;28;658078;-71
2023/03/08 10:25:14;;;;;;;14.00;7.97;;;7.30;93.40;;;;;;4401105;28;658419;-71
2023/03/08 10:28:02;;;;;;;13.07;7.57;;;7.70;92.70;;;;;;4385748;28;659608;-70
2023/03/08 10:30:53;;;;;;;16.00;7.63;;;7.70;91.80;;;;;;4426859;28;657314;-70
2023/03/08 10:33:40;;;;;;;13.47;7.93;;;7.70;91.20;;;;;;4412644;28;658139;-70
2023/03/08 10:36:27;;;;;;;14.97;8.33;;;7.60;91.90;;;;;;4425497;28;658756;-70
2023/03/08 10:39:16;;;;;;;18.67;7.73;;;7.40;90.90;;;;;;4430380;28;658358;-70
2023/03/08 10:42:07;;;;;;;16.03;7.63;;;7.00;91.00;;;;;;4432419;28;657952;-70
2023/03/08 10:44:55;;;;;;;17.60;8.60;;;7.00;91.00;;;;;;4414806;28;657599;-70
2023/03/08 10:47:54;;;;;;;20.33;9.87;;;6.90;91.70;;;;;;4400895;28;658356;-70
2023/03/08 10:50:41;;;;;;;18.17;10.50;;;6.80;93.90;;;;;;4388443;28;657920;-70
2023/03/08 10:53:29;;;;;;;23.83;11.33;;;7.00;95.90;;;;;;4431059;28;659564;-69
2023/03/08 10:56:20;;;;;;;27.30;12.20;;;7.30;95.80;;;;;;4411576;28;658455;-69
2023/03/08 10:59:18;;;;;;;27.50;11.70;;;7.90;96.00;;;;;;4414326;28;659663;-69
2023/03/08 11:02:17;;;;;;;28.57;12.40;;;8.90;95.80;;;;;;4397318;28;659519;-69
2023/03/08 11:05:17;;;;;;;27.67;12.93;;;8.10;93.20;;;;;;4407699;28;658519;-69
2023/03/08 11:08:16;;;;;;;26.13;12.10;;;8.60;96.70;;;;;;4426956;28;658883;-71
2023/03/08 11:11:09;;;;;;;24.60;11.83;;;8.80;92.90;;;;;;4408040;28;659322;-69
2023/03/08 11:13:56;;;;;;;23.20;12.30;;;8.10;92.80;;;;;;4407709;28;659110;-70
2023/03/08 11:16:51;;;;;;;20.83;11.10;;;8.30;93.70;;;;;;4432975;28;659086;-69
2023/03/08 11:20:08;;;;;;;21.17;10.73;;;8.30;91.90;;;;;;4404757;28;659465;-70
2023/03/08 11:23:04;;;;;;;15.93;8.07;;;7.90;92.30;;;;;;4387483;28;659221;-70
2023/03/08 11:25:55;;;;;;;20.43;9.70;;;7.30;90.50;;;;;;4385738;28;658264;-69
2023/03/08 11:28:49;;;;;;;22.90;11.40;;;7.10;92.80;;;;;;4410816;28;659099;-70
2023/03/08 11:31:40;;;;;;;18.70;10.00;;;7.00;94.40;;;;;;4412958;28;658440;-70
2023/03/08 11:34:53;;;;;;;16.07;7.40;;;6.90;93.70;;;;;;4409857;28;659843;-70
2023/03/08 11:37:44;;;;;;;17.30;7.33;;;6.70;92.20;;;;;;4401685;28;657780;-70
2023/03/08 11:40:48;;;;;;;13.30;6.70;;;6.70;92.40;;;;;;4404722;28;658194;-72
2023/03/08 11:43:58;;;;;;;12.70;7.22;;;6.80;91.00;;;;;;4378890;28;658284;-72
2023/03/08 11:46:56;;;;;;;15.50;7.27;;;6.80;91.70;;;;;;4396260;28;657287;-72
2023/03/08 11:49:51;;;;;;;11.07;6.80;;;7.00;91.10;;;;;;4406606;28;658215;-73
2023/03/08 11:52:41;;;;;;;15.10;8.27;;;7.10;91.00;;;;;;4401851;28;658782;-70
2023/03/08 11:55:36;;;;;;;14.37;7.10;;;7.20;90.60;;;;;;4409456;28;657247;-71
2023/03/08 11:58:26;;;;;;;18.20;7.55;;;7.50;90.00;;;;;;4405689;28;658308;-70
2023/03/08 12:01:15;;;;;;;12.83;6.57;;;7.60;88.50;;;;;;4403609;28;660210;-70
2023/03/08 12:04:05;;;;;;;12.47;7.13;;;7.50;86.50;;;;;;4401991;28;659239;-71
2023/03/08 12:06:53;;;;;;;10.13;6.33;;;7.60;86.80;;;;;;4406636;28;658100;-69
2023/03/08 12:09:42;;;;;;;12.90;6.90;;;7.60;84.30;;;;;;4405514;28;657759;-70
2023/03/08 12:12:35;;;;;;;9.53;5.53;;;7.80;85.30;;;;;;4429972;28;657631;-71
2023/03/08 12:15:26;;;;;;;12.93;6.70;;;7.80;81.80;;;;;;4405525;28;658232;-70
2023/03/08 12:18:16;;;;;;;12.20;6.43;;;7.90;81.70;;;;;;4405007;28;657946;-72
2023/03/08 12:21:11;;;;;;;14.53;6.33;;;7.80;81.70;;;;;;4403345;28;658410;-71
2023/03/08 12:24:04;;;;;;;12.57;6.97;;;8.30;83.80;;;;;;4397250;28;658192;-70
2023/03/08 12:26:52;;;;;;;12.40;7.10;;;8.40;80.00;;;;;;4399292;28;657653;-70
2023/03/08 12:29:43;;;;;;;14.77;7.30;;;8.80;80.00;;;;;;4426661;28;658000;-70
2023/03/08 12:32:30;;;;;;;12.87;6.17;;;8.90;77.90;;;;;;4408977;28;657101;-70
2023/03/08 12:35:28;;;;;;;12.53;5.83;;;9.20;75.30;;;;;;4436779;28;658750;-69
2023/03/08 12:38:29;;;;;;;4.57;2.70;;;9.10;70.90;;;;;;4386512;28;657504;-72
2023/03/08 12:41:25;;;;;;;8.97;4.90;;;9.20;65.10;;;;;;4375915;28;657051;-73
2023/03/08 12:44:23;;;;;;;7.83;4.13;;;9.30;67.40;;;;;;4406990;28;656836;-73
2023/03/08 12:47:20;;;;;;;8.20;4.17;;;9.00;67.40;;;;;;4384345;28;657244;-70
2023/03/08 12:50:10;;;;;;;6.47;3.10;;;8.50;64.90;;;;;;4401739;28;657046;-71
2023/03/08 12:52:57;;;;;;;8.10;4.57;;;8.40;65.90;;;;;;4405738;28;657052;-72
2023/03/08 12:55:45;;;;;;;10.33;4.70;;;8.50;67.30;;;;;;4429429;28;656655;-71
2023/03/08 12:58:32;;;;;;;10.07;5.17;;;8.70;64.10;;;;;;4405861;28;658562;-70
2023/03/08 13:01:37;;;;;;;7.67;4.17;;;8.40;65.50;;;;;;4430242;28;657812;-71
2023/03/08 13:04:28;;;;;;;10.50;6.00;;;8.50;69.00;;;;;;4406088;28;656795;-70
2023/03/08 13:07:25;;;;;;;15.77;5.80;;;8.30;68.60;;;;;;4414536;28;657534;-71
2023/03/08 13:10:19;;;;;;;7.60;4.63;;;8.40;70.90;;;;;;4389087;28;658357;-70
2023/03/08 13:13:23;;;;;;;13.02;5.35;;;8.30;66.50;;;;;;4388823;28;658142;-72
2023/03/08 13:16:30;;;;;;;10.27;5.18;;;8.40;66.60;;;;;;4412550;28;657793;-72
2023/03/08 13:19:21;;;;;;;9.27;5.30;;;8.30;66.50;;;;;;4407161;28;657866;-71
2023/03/08 13:22:13;;;;;;;9.27;5.10;;;8.30;67.80;;;;;;4404753;28;657436;-70
2023/03/08 13:25:05;;;;;;;9.30;5.43;;;8.20;68.70;;;;;;4389859;28;656150;-70
2023/03/08 13:27:56;;;;;;;13.20;5.37;;;8.10;66.60;;;;;;4403238;28;658179;-71
2023/03/08 13:30:45;;;;;;;10.47;5.93;;;7.90;69.50;;;;;;4409228;28;657997;-71
2023/03/08 13:33:36;;;;;;;9.17;5.00;;;8.00;67.70;;;;;;4409664;28;658699;-71
2023/03/08 13:36:24;;;;;;;11.80;6.23;;;8.00;68.80;;;;;;4405681;28;656353;-73
2023/03/08 13:39:19;;;;;;;14.05;6.35;;;8.00;69.60;;;;;;4408865;28;658018;-70
2023/03/08 13:42:07;;;;;;;11.70;6.23;;;8.20;69.30;;;;;;4404961;28;657468;-70
2023/03/08 13:45:05;;;;;;;11.27;5.90;;;8.40;69.50;;;;;;4418890;28;657656;-71
2023/03/08 13:47:52;;;;;;;11.23;6.20;;;8.40;69.40;;;;;;4402488;28;657676;-71
2023/03/08 13:50:42;;;;;;;11.80;6.00;;;8.80;69.00;;;;;;4417820;28;657444;-70
2023/03/08 13:53:31;;;;;;;11.40;5.23;;;9.00;66.40;;;;;;4421424;28;657847;-70
2023/03/08 13:56:23;;;;;;;11.07;6.00;;;8.70;66.00;;;;;;4428072;28;658141;-71
2023/03/08 13:59:16;;;;;;;12.50;5.77;;;8.70;66.50;;;;;;4388175;28;659247;-70
2023/03/08 14:02:13;;;;;;;10.90;5.70;;;8.70;65.70;;;;;;4406469;28;657922;-70
2023/03/08 14:05:01;;;;;;;9.07;5.10;;;8.60;65.30;;;;;;4384994;28;657272;-70
2023/03/08 14:07:56;;;;;;;11.70;5.47;;;8.40;65.40;;;;;;4421791;28;657587;-71
2023/03/08 14:10:46;;;;;;;9.80;4.63;;;8.30;66.30;;;;;;4401841;28;657426;-70
2023/03/08 14:13:36;;;;;;;11.57;6.00;;;8.10;66.90;;;;;;4402736;28;657657;-71
2023/03/08 14:16:26;;;;;;;10.27;6.07;;;8.00;68.00;;;;;;4401893;28;658789;-71
2023/03/08 14:19:21;;;;;;;12.70;6.17;;;8.00;68.30;;;;;;4405145;28;658107;-71
2023/03/08 14:22:11;;;;;;;11.02;5.70;;;8.00;70.00;;;;;;4403754;28;658459;-70
2023/03/08 14:25:01;;;;;;;10.23;5.23;;;7.90;70.30;;;;;;4404197;28;659099;-71